sensor_id;sensor_type;location;lat;lon;timestamp;temperature;humidity
38514;DHT22;24282;48.400;10.808;2023-04-15T00:00:51;6.90;80.80
38514;DHT22;24282;48.400;10.808;2023-04-15T00:03:18;6.90;80.90
38514;DHT22;24282;48.400;10.808;2023-04-15T00:05:43;6.90;80.80
38514;DHT22;24282;48.400;10.808;2023-04-15T00:08:09;6.90;80.60
38514;DHT22;24282;48.400;10.808;2023-04-15T00:10:35;6.90;80.60
38514;DHT22;24282;48.400;10.808;2023-04-15T00:13:00;6.80;80.50
38514;DHT22;24282;48.400;10.808;2023-04-15T00:15:27;6.80;80.40
38514;DHT22;24282;48.400;10.808;2023-04-15T00:17:52;6.80;80.40
38514;DHT22;24282;48.400;10.808;2023-04-15T00:20:18;6.80;80.50
38514;DHT22;24282;48.400;10.808;2023-04-15T00:22:44;6.70;80.70
38514;DHT22;24282;48.400;10.808;2023-04-15T00:25:10;6.70;80.80
38514;DHT22;24282;48.400;10.808;2023-04-15T00:27:36;6.70;80.80
38514;DHT22;24282;48.400;10.808;2023-04-15T00:30:03;6.70;80.80
38514;DHT22;24282;48.400;10.808;2023-04-15T00:32:29;6.70;80.80
38514;DHT22;24282;48.400;10.808;2023-04-15T00:34:55;6.70;80.80
38514;DHT22;24282;48.400;10.808;2023-04-15T00:37:22;6.70;80.70
38514;DHT22;24282;48.400;10.808;2023-04-15T00:39:48;6.60;80.70
38514;DHT22;24282;48.400;10.808;2023-04-15T00:42:14;6.60;80.70
38514;DHT22;24282;48.400;10.808;2023-04-15T00:44:40;6.50;80.80
38514;DHT22;24282;48.400;10.808;2023-04-15T00:47:08;6.50;80.90
38514;DHT22;24282;48.400;10.808;2023-04-15T00:49:34;6.50;80.80
38514;DHT22;24282;48.400;10.808;2023-04-15T00:52:00;6.50;80.80
38514;DHT22;24282;48.400;10.808;2023-04-15T00:54:26;6.50;80.70
38514;DHT22;24282;48.400;10.808;2023-04-15T00:56:52;6.50;80.60
38514;DHT22;24282;48.400;10.808;2023-04-15T00:59:18;6.40;80.90
38514;DHT22;24282;48.400;10.808;2023-04-15T01:01:44;6.40;80.90
38514;DHT22;24282;48.400;10.808;2023-04-15T01:04:12;6.40;80.90
38514;DHT22;24282;48.400;10.808;2023-04-15T01:06:38;6.30;80.80
38514;DHT22;24282;48.400;10.808;2023-04-15T01:09:03;6.40;80.60
38514;DHT22;24282;48.400;10.808;2023-04-15T01:11:31;6.30;80.60
38514;DHT22;24282;48.400;10.808;2023-04-15T01:14:00;6.30;80.70
38514;DHT22;24282;48.400;10.808;2023-04-15T01:16:26;6.20;80.80
38514;DHT22;24282;48.400;10.808;2023-04-15T01:18:53;6.20;80.80
38514;DHT22;24282;48.400;10.808;2023-04-15T01:21:19;6.20;80.90
38514;DHT22;24282;48.400;10.808;2023-04-15T01:23:46;6.20;80.90
38514;DHT22;24282;48.400;10.808;2023-04-15T01:26:12;6.10;80.80
38514;DHT22;24282;48.400;10.808;2023-04-15T01:28:38;6.10;80.80
38514;DHT22;24282;48.400;10.808;2023-04-15T01:31:09;6.10;80.70
38514;DHT22;24282;48.400;10.808;2023-04-15T01:33:36;6.10;80.60
38514;DHT22;24282;48.400;10.808;2023-04-15T01:36:03;6.10;80.60
38514;DHT22;24282;48.400;10.808;2023-04-15T01:38:30;6.10;80.50
38514;DHT22;24282;48.400;10.808;2023-04-15T01:40:56;6.00;80.60
38514;DHT22;24282;48.400;10.808;2023-04-15T01:43:24;6.00;80.60
38514;DHT22;24282;48.400;10.808;2023-04-15T01:45:50;6.00;80.50
38514;DHT22;24282;48.400;10.808;2023-04-15T01:48:16;6.00;80.50
38514;DHT22;24282;48.400;10.808;2023-04-15T01:50:42;6.00;80.60
38514;DHT22;24282;48.400;10.808;2023-04-15T01:53:08;5.90;80.70
38514;DHT22;24282;48.400;10.808;2023-04-15T01:55:34;5.90;80.80
38514;DHT22;24282;48.400;10.808;2023-04-15T01:58:00;5.80;80.90
38514;DHT22;24282;48.400;10.808;2023-04-15T02:00:26;5.80;81.00
38514;DHT22;24282;48.400;10.808;2023-04-15T02:02:51;5.80;81.10
38514;DHT22;24282;48.400;10.808;2023-04-15T02:05:17;5.80;81.00
38514;DHT22;24282;48.400;10.808;2023-04-15T02:07:47;5.80;80.80
38514;DHT22;24282;48.400;10.808;2023-04-15T02:10:13;5.90;80.80
38514;DHT22;24282;48.400;10.808;2023-04-15T02:12:38;5.80;80.90
38514;DHT22;24282;48.400;10.808;2023-04-15T02:15:05;5.80;80.80
38514;DHT22;24282;48.400;10.808;2023-04-15T02:17:35;5.80;80.70
38514;DHT22;24282;48.400;10.808;2023-04-15T02:20:02;5.80;80.60
38514;DHT22;24282;48.400;10.808;2023-04-15T02:22:30;5.90;80.40
38514;DHT22;24282;48.400;10.808;2023-04-15T02:24:56;5.80;80.50
38514;DHT22;24282;48.400;10.808;2023-04-15T02:27:22;5.80;80.50
38514;DHT22;24282;48.400;10.808;2023-04-15T02:29:49;5.80;80.50
38514;DHT22;24282;48.400;10.808;2023-04-15T02:32:15;5.80;80.60
38514;DHT22;24282;48.400;10.808;2023-04-15T02:34:41;5.70;80.60
38514;DHT22;24282;48.400;10.808;2023-04-15T02:37:10;5.70;80.50
38514;DHT22;24282;48.400;10.808;2023-04-15T02:39:36;5.80;80.50
38514;DHT22;24282;48.400;10.808;2023-04-15T02:42:02;5.80;80.50
38514;DHT22;24282;48.400;10.808;2023-04-15T02:44:29;5.70;80.50
38514;DHT22;24282;48.400;10.808;2023-04-15T02:46:58;5.80;80.60
38514;DHT22;24282;48.400;10.808;2023-04-15T02:49:26;5.70;80.60
38514;DHT22;24282;48.400;10.808;2023-04-15T02:51:54;5.70;80.70
38514;DHT22;24282;48.400;10.808;2023-04-15T02:54:21;5.70;80.80
38514;DHT22;24282;48.400;10.808;2023-04-15T02:56:50;5.70;80.70
38514;DHT22;24282;48.400;10.808;2023-04-15T02:59:19;5.70;80.70
38514;DHT22;24282;48.400;10.808;2023-04-15T03:01:45;5.70;80.90
38514;DHT22;24282;48.400;10.808;2023-04-15T03:04:11;5.70;80.80
38514;DHT22;24282;48.400;10.808;2023-04-15T03:06:38;5.70;80.80
38514;DHT22;24282;48.400;10.808;2023-04-15T03:09:06;5.70;80.70
38514;DHT22;24282;48.400;10.808;2023-04-15T03:11:34;5.60;81.00
38514;DHT22;24282;48.400;10.808;2023-04-15T03:14:05;5.70;81.10
38514;DHT22;24282;48.400;10.808;2023-04-15T03:16:34;5.60;81.00
38514;DHT22;24282;48.400;10.808;2023-04-15T03:19:00;5.60;81.30
38514;DHT22;24282;48.400;10.808;2023-04-15T03:21:26;5.60;81.30
38514;DHT22;24282;48.400;10.808;2023-04-15T03:23:52;5.60;81.30
38514;DHT22;24282;48.400;10.808;2023-04-15T03:26:28;5.60;81.40
38514;DHT22;24282;48.400;10.808;2023-04-15T03:28:57;5.60;81.40
38514;DHT22;24282;48.400;10.808;2023-04-15T03:31:23;5.60;81.40
38514;DHT22;24282;48.400;10.808;2023-04-15T03:33:49;5.60;81.30
38514;DHT22;24282;48.400;10.808;2023-04-15T03:36:15;5.50;81.30
38514;DHT22;24282;48.400;10.808;2023-04-15T03:38:41;5.50;81.50
38514;DHT22;24282;48.400;10.808;2023-04-15T03:41:07;5.50;81.50
38514;DHT22;24282;48.400;10.808;2023-04-15T03:43:34;5.50;81.40
38514;DHT22;24282;48.400;10.808;2023-04-15T03:46:00;5.50;81.20
38514;DHT22;24282;48.400;10.808;2023-04-15T03:48:26;5.50;81.20
38514;DHT22;24282;48.400;10.808;2023-04-15T03:50:51;5.50;81.20
38514;DHT22;24282;48.400;10.808;2023-04-15T03:53:17;5.50;81.30
38514;DHT22;24282;48.400;10.808;2023-04-15T03:55:43;5.50;81.40
38514;DHT22;24282;48.400;10.808;2023-04-15T03:58:09;5.50;81.30
38514;DHT22;24282;48.400;10.808;2023-04-15T04:00:40;5.50;81.30
38514;DHT22;24282;48.400;10.808;2023-04-15T04:03:06;5.50;81.00
38514;DHT22;24282;48.400;10.808;2023-04-15T04:05:32;5.50;81.10
38514;DHT22;24282;48.400;10.808;2023-04-15T04:08:01;5.50;81.20
38514;DHT22;24282;48.400;10.808;2023-04-15T04:10:27;5.40;81.20
38514;DHT22;24282;48.400;10.808;2023-04-15T04:12:53;5.40;81.20
38514;DHT22;24282;48.400;10.808;2023-04-15T04:15:18;5.40;81.30
38514;DHT22;24282;48.400;10.808;2023-04-15T04:17:44;5.40;81.40
38514;DHT22;24282;48.400;10.808;2023-04-15T04:20:10;5.40;81.40
38514;DHT22;24282;48.400;10.808;2023-04-15T04:22:39;5.40;81.40
38514;DHT22;24282;48.400;10.808;2023-04-15T04:25:06;5.40;81.30
38514;DHT22;24282;48.400;10.808;2023-04-15T04:27:33;5.50;81.20
38514;DHT22;24282;48.400;10.808;2023-04-15T04:29:59;5.50;81.10
38514;DHT22;24282;48.400;10.808;2023-04-15T04:32:25;5.50;81.00
38514;DHT22;24282;48.400;10.808;2023-04-15T04:34:54;5.50;80.90
38514;DHT22;24282;48.400;10.808;2023-04-15T04:37:20;5.50;80.90
38514;DHT22;24282;48.400;10.808;2023-04-15T04:39:48;5.40;80.80
38514;DHT22;24282;48.400;10.808;2023-04-15T04:42:14;5.50;80.90
38514;DHT22;24282;48.400;10.808;2023-04-15T04:44:39;5.50;80.80
38514;DHT22;24282;48.400;10.808;2023-04-15T04:47:05;5.50;80.90
38514;DHT22;24282;48.400;10.808;2023-04-15T04:49:32;5.50;80.90
38514;DHT22;24282;48.400;10.808;2023-04-15T04:51:58;5.40;80.80
38514;DHT22;24282;48.400;10.808;2023-04-15T04:54:24;5.50;80.70
38514;DHT22;24282;48.400;10.808;2023-04-15T04:56:49;5.50;80.80
38514;DHT22;24282;48.400;10.808;2023-04-15T04:59:16;5.50;80.90
38514;DHT22;24282;48.400;10.808;2023-04-15T05:01:41;5.50;80.80
38514;DHT22;24282;48.400;10.808;2023-04-15T05:04:07;5.50;80.80
38514;DHT22;24282;48.400;10.808;2023-04-15T05:06:33;5.50;80.80
38514;DHT22;24282;48.400;10.808;2023-04-15T05:09:01;5.40;80.70
38514;DHT22;24282;48.400;10.808;2023-04-15T05:11:28;5.40;80.70
38514;DHT22;24282;48.400;10.808;2023-04-15T05:13:54;5.50;80.70
38514;DHT22;24282;48.400;10.808;2023-04-15T05:16:19;5.50;80.70
38514;DHT22;24282;48.400;10.808;2023-04-15T05:18:45;5.50;80.60
38514;DHT22;24282;48.400;10.808;2023-04-15T05:21:11;5.50;80.60
38514;DHT22;24282;48.400;10.808;2023-04-15T05:23:37;5.50;80.70
38514;DHT22;24282;48.400;10.808;2023-04-15T05:26:03;5.60;80.90
38514;DHT22;24282;48.400;10.808;2023-04-15T05:28:29;5.60;81.00
38514;DHT22;24282;48.400;10.808;2023-04-15T05:30:55;5.70;81.00
38514;DHT22;24282;48.400;10.808;2023-04-15T05:33:21;5.80;80.80
38514;DHT22;24282;48.400;10.808;2023-04-15T05:35:47;5.80;80.80
38514;DHT22;24282;48.400;10.808;2023-04-15T05:38:13;5.80;80.70
38514;DHT22;24282;48.400;10.808;2023-04-15T05:40:38;5.80;80.60
38514;DHT22;24282;48.400;10.808;2023-04-15T05:43:04;5.90;80.50
38514;DHT22;24282;48.400;10.808;2023-04-15T05:45:30;5.90;80.60
38514;DHT22;24282;48.400;10.808;2023-04-15T05:47:56;5.90;80.40
38514;DHT22;24282;48.400;10.808;2023-04-15T05:50:21;5.90;80.20
38514;DHT22;24282;48.400;10.808;2023-04-15T05:52:47;5.90;80.10
38514;DHT22;24282;48.400;10.808;2023-04-15T05:55:13;5.90;80.20
38514;DHT22;24282;48.400;10.808;2023-04-15T05:57:39;5.90;80.20
38514;DHT22;24282;48.400;10.808;2023-04-15T06:00:05;5.90;80.10
38514;DHT22;24282;48.400;10.808;2023-04-15T06:02:35;5.90;80.20
38514;DHT22;24282;48.400;10.808;2023-04-15T06:05:01;5.90;80.30
38514;DHT22;24282;48.400;10.808;2023-04-15T06:07:26;5.90;80.20
38514;DHT22;24282;48.400;10.808;2023-04-15T06:09:52;5.90;80.10
38514;DHT22;24282;48.400;10.808;2023-04-15T06:12:18;6.00;79.40
38514;DHT22;24282;48.400;10.808;2023-04-15T06:14:44;6.00;79.00
38514;DHT22;24282;48.400;10.808;2023-04-15T06:17:10;6.00;78.80
38514;DHT22;24282;48.400;10.808;2023-04-15T06:19:35;6.00;78.80
38514;DHT22;24282;48.400;10.808;2023-04-15T06:22:01;6.00;78.20
38514;DHT22;24282;48.400;10.808;2023-04-15T06:24:28;6.00;77.70
38514;DHT22;24282;48.400;10.808;2023-04-15T06:26:53;6.10;77.40
38514;DHT22;24282;48.400;10.808;2023-04-15T06:29:19;6.00;77.20
38514;DHT22;24282;48.400;10.808;2023-04-15T06:31:49;6.10;77.30
38514;DHT22;24282;48.400;10.808;2023-04-15T06:34:14;6.10;76.90
38514;DHT22;24282;48.400;10.808;2023-04-15T06:36:40;6.20;76.80
38514;DHT22;24282;48.400;10.808;2023-04-15T06:39:06;6.20;76.50
38514;DHT22;24282;48.400;10.808;2023-04-15T06:41:32;6.20;76.50
38514;DHT22;24282;48.400;10.808;2023-04-15T06:43:58;6.20;76.10
38514;DHT22;24282;48.400;10.808;2023-04-15T06:46:24;6.20;76.20
38514;DHT22;24282;48.400;10.808;2023-04-15T06:48:50;6.30;76.10
38514;DHT22;24282;48.400;10.808;2023-04-15T06:51:16;6.30;76.20
38514;DHT22;24282;48.400;10.808;2023-04-15T06:53:42;6.30;76.30
38514;DHT22;24282;48.400;10.808;2023-04-15T06:56:08;6.40;76.00
38514;DHT22;24282;48.400;10.808;2023-04-15T06:58:35;6.40;75.60
38514;DHT22;24282;48.400;10.808;2023-04-15T07:01:01;6.40;75.60
38514;DHT22;24282;48.400;10.808;2023-04-15T07:03:26;6.50;75.20
38514;DHT22;24282;48.400;10.808;2023-04-15T07:05:52;6.50;75.40
38514;DHT22;24282;48.400;10.808;2023-04-15T07:08:19;6.50;75.10
38514;DHT22;24282;48.400;10.808;2023-04-15T07:10:48;6.50;75.00
38514;DHT22;24282;48.400;10.808;2023-04-15T07:13:13;6.50;74.80
38514;DHT22;24282;48.400;10.808;2023-04-15T07:15:39;6.60;74.70
38514;DHT22;24282;48.400;10.808;2023-04-15T07:18:05;6.60;74.70
38514;DHT22;24282;48.400;10.808;2023-04-15T07:20:30;6.60;74.20
38514;DHT22;24282;48.400;10.808;2023-04-15T07:22:56;6.70;74.00
38514;DHT22;24282;48.400;10.808;2023-04-15T07:25:22;6.70;74.10
38514;DHT22;24282;48.400;10.808;2023-04-15T07:27:48;6.70;73.70
38514;DHT22;24282;48.400;10.808;2023-04-15T07:30:14;6.80;73.90
38514;DHT22;24282;48.400;10.808;2023-04-15T07:32:41;6.80;73.70
38514;DHT22;24282;48.400;10.808;2023-04-15T07:35:07;6.90;73.50
38514;DHT22;24282;48.400;10.808;2023-04-15T07:37:34;6.90;73.30
38514;DHT22;24282;48.400;10.808;2023-04-15T07:40:00;7.00;73.40
38514;DHT22;24282;48.400;10.808;2023-04-15T07:42:26;7.00;73.20
38514;DHT22;24282;48.400;10.808;2023-04-15T07:44:53;7.10;73.20
38514;DHT22;24282;48.400;10.808;2023-04-15T07:47:19;7.20;73.20
38514;DHT22;24282;48.400;10.808;2023-04-15T07:49:45;7.30;72.60
38514;DHT22;24282;48.400;10.808;2023-04-15T07:52:11;7.30;72.30
38514;DHT22;24282;48.400;10.808;2023-04-15T07:54:37;7.40;72.50
38514;DHT22;24282;48.400;10.808;2023-04-15T07:57:03;7.40;72.70
38514;DHT22;24282;48.400;10.808;2023-04-15T07:59:29;7.40;72.80
38514;DHT22;24282;48.400;10.808;2023-04-15T08:01:55;7.50;73.40
38514;DHT22;24282;48.400;10.808;2023-04-15T08:04:21;7.50;73.20
38514;DHT22;24282;48.400;10.808;2023-04-15T08:06:47;7.60;72.10
38514;DHT22;24282;48.400;10.808;2023-04-15T08:09:15;7.70;71.30
38514;DHT22;24282;48.400;10.808;2023-04-15T08:11:41;7.80;71.10
38514;DHT22;24282;48.400;10.808;2023-04-15T08:14:07;7.80;70.80
38514;DHT22;24282;48.400;10.808;2023-04-15T08:16:32;7.90;71.30
38514;DHT22;24282;48.400;10.808;2023-04-15T08:18:58;7.90;71.10
38514;DHT22;24282;48.400;10.808;2023-04-15T08:21:24;7.90;71.10
38514;DHT22;24282;48.400;10.808;2023-04-15T08:23:51;8.00;71.30
38514;DHT22;24282;48.400;10.808;2023-04-15T08:26:18;8.00;71.00
38514;DHT22;24282;48.400;10.808;2023-04-15T08:28:45;8.20;70.50
38514;DHT22;24282;48.400;10.808;2023-04-15T08:31:12;8.20;70.40
38514;DHT22;24282;48.400;10.808;2023-04-15T08:33:38;8.20;69.70
38514;DHT22;24282;48.400;10.808;2023-04-15T08:36:04;8.20;69.60
38514;DHT22;24282;48.400;10.808;2023-04-15T08:38:31;8.20;70.10
38514;DHT22;24282;48.400;10.808;2023-04-15T08:40:57;8.30;70.00
38514;DHT22;24282;48.400;10.808;2023-04-15T08:43:27;8.40;70.30
38514;DHT22;24282;48.400;10.808;2023-04-15T08:45:55;8.40;70.20
38514;DHT22;24282;48.400;10.808;2023-04-15T08:48:24;8.50;69.90
38514;DHT22;24282;48.400;10.808;2023-04-15T08:50:53;8.60;68.60
38514;DHT22;24282;48.400;10.808;2023-04-15T08:53:19;8.60;68.40
38514;DHT22;24282;48.400;10.808;2023-04-15T08:55:46;8.60;69.00
38514;DHT22;24282;48.400;10.808;2023-04-15T08:58:13;8.60;68.00
38514;DHT22;24282;48.400;10.808;2023-04-15T09:00:40;8.70;67.70
38514;DHT22;24282;48.400;10.808;2023-04-15T09:03:07;8.70;68.00
38514;DHT22;24282;48.400;10.808;2023-04-15T09:05:33;8.70;67.90
38514;DHT22;24282;48.400;10.808;2023-04-15T09:08:00;8.90;67.60
38514;DHT22;24282;48.400;10.808;2023-04-15T09:10:27;8.90;67.00
38514;DHT22;24282;48.400;10.808;2023-04-15T09:12:53;9.00;68.00
38514;DHT22;24282;48.400;10.808;2023-04-15T09:15:19;9.00;67.80
38514;DHT22;24282;48.400;10.808;2023-04-15T09:17:45;9.10;67.50
38514;DHT22;24282;48.400;10.808;2023-04-15T09:20:14;9.10;66.50
38514;DHT22;24282;48.400;10.808;2023-04-15T09:22:41;9.10;67.00
38514;DHT22;24282;48.400;10.808;2023-04-15T09:27:49;9.20;67.90
38514;DHT22;24282;48.400;10.808;2023-04-15T09:30:15;9.30;66.70
38514;DHT22;24282;48.400;10.808;2023-04-15T09:32:57;9.30;67.50
38514;DHT22;24282;48.400;10.808;2023-04-15T09:35:24;9.30;67.40
38514;DHT22;24282;48.400;10.808;2023-04-15T09:37:51;9.40;66.80
38514;DHT22;24282;48.400;10.808;2023-04-15T09:40:37;9.50;67.00
38514;DHT22;24282;48.400;10.808;2023-04-15T09:43:04;9.50;65.80
38514;DHT22;24282;48.400;10.808;2023-04-15T09:45:31;9.60;66.20
38514;DHT22;24282;48.400;10.808;2023-04-15T09:48:26;9.60;65.60
38514;DHT22;24282;48.400;10.808;2023-04-15T09:50:54;9.60;65.50
38514;DHT22;24282;48.400;10.808;2023-04-15T09:53:23;9.70;65.50
38514;DHT22;24282;48.400;10.808;2023-04-15T09:55:57;9.80;65.10
38514;DHT22;24282;48.400;10.808;2023-04-15T09:58:28;9.90;64.80
38514;DHT22;24282;48.400;10.808;2023-04-15T10:00:55;10.00;62.40
38514;DHT22;24282;48.400;10.808;2023-04-15T10:03:29;10.10;62.20
38514;DHT22;24282;48.400;10.808;2023-04-15T10:05:58;10.10;62.10
38514;DHT22;24282;48.400;10.808;2023-04-15T10:08:27;10.20;63.30
38514;DHT22;24282;48.400;10.808;2023-04-15T10:10:53;10.20;64.00
38514;DHT22;24282;48.400;10.808;2023-04-15T10:13:24;10.30;62.20
38514;DHT22;24282;48.400;10.808;2023-04-15T10:15:57;10.40;61.70
38514;DHT22;24282;48.400;10.808;2023-04-15T10:18:25;10.50;58.80
38514;DHT22;24282;48.400;10.808;2023-04-15T10:20:52;10.60;59.20
38514;DHT22;24282;48.400;10.808;2023-04-15T10:23:19;10.70;58.70
38514;DHT22;24282;48.400;10.808;2023-04-15T10:25:47;10.80;58.30
38514;DHT22;24282;48.400;10.808;2023-04-15T10:28:15;10.90;58.50
38514;DHT22;24282;48.400;10.808;2023-04-15T10:30:42;10.90;57.20
38514;DHT22;24282;48.400;10.808;2023-04-15T10:33:08;10.90;59.50
38514;DHT22;24282;48.400;10.808;2023-04-15T10:35:36;10.90;57.30
38514;DHT22;24282;48.400;10.808;2023-04-15T10:38:02;11.10;57.00
38514;DHT22;24282;48.400;10.808;2023-04-15T10:40:40;11.10;56.50
38514;DHT22;24282;48.400;10.808;2023-04-15T10:43:06;11.30;57.10
38514;DHT22;24282;48.400;10.808;2023-04-15T10:45:34;11.40;55.50
38514;DHT22;24282;48.400;10.808;2023-04-15T10:48:03;11.50;56.90
38514;DHT22;24282;48.400;10.808;2023-04-15T10:50:32;11.60;55.10
38514;DHT22;24282;48.400;10.808;2023-04-15T10:53:02;11.50;56.20
38514;DHT22;24282;48.400;10.808;2023-04-15T10:55:32;11.50;56.20
38514;DHT22;24282;48.400;10.808;2023-04-15T10:57:59;11.40;58.60
38514;DHT22;24282;48.400;10.808;2023-04-15T11:00:28;11.30;57.10
38514;DHT22;24282;48.400;10.808;2023-04-15T11:02:57;11.20;57.20
38514;DHT22;24282;48.400;10.808;2023-04-15T11:08:14;11.20;51.00
38514;DHT22;24282;48.400;10.808;2023-04-15T11:13:18;11.20;49.90
38514;DHT22;24282;48.400;10.808;2023-04-15T11:15:47;11.40;47.80
38514;DHT22;24282;48.400;10.808;2023-04-15T11:18:24;11.40;46.80
38514;DHT22;24282;48.400;10.808;2023-04-15T11:20:55;11.40;45.70
38514;DHT22;24282;48.400;10.808;2023-04-15T11:23:39;11.40;46.10
38514;DHT22;24282;48.400;10.808;2023-04-15T11:26:09;11.40;47.20
38514;DHT22;24282;48.400;10.808;2023-04-15T11:28:38;11.40;48.10
38514;DHT22;24282;48.400;10.808;2023-04-15T11:31:16;11.40;47.50
38514;DHT22;24282;48.400;10.808;2023-04-15T11:34:08;11.40;47.70
38514;DHT22;24282;48.400;10.808;2023-04-15T11:36:34;11.30;47.00
38514;DHT22;24282;48.400;10.808;2023-04-15T11:39:00;11.40;46.00
38514;DHT22;24282;48.400;10.808;2023-04-15T11:41:26;11.20;44.80
38514;DHT22;24282;48.400;10.808;2023-04-15T11:43:52;11.20;46.70
38514;DHT22;24282;48.400;10.808;2023-04-15T11:46:18;11.10;46.70
38514;DHT22;24282;48.400;10.808;2023-04-15T11:48:45;11.20;46.10
38514;DHT22;24282;48.400;10.808;2023-04-15T11:51:12;11.20;47.00
38514;DHT22;24282;48.400;10.808;2023-04-15T11:53:46;11.20;47.40
38514;DHT22;24282;48.400;10.808;2023-04-15T11:56:18;11.00;49.00
38514;DHT22;24282;48.400;10.808;2023-04-15T11:58:45;11.00;50.20
38514;DHT22;24282;48.400;10.808;2023-04-15T12:01:11;11.00;50.30
38514;DHT22;24282;48.400;10.808;2023-04-15T12:03:42;11.00;48.70
38514;DHT22;24282;48.400;10.808;2023-04-15T12:11:44;11.00;50.50
38514;DHT22;24282;48.400;10.808;2023-04-15T12:14:27;10.90;50.00
38514;DHT22;24282;48.400;10.808;2023-04-15T12:16:57;10.90;50.80
38514;DHT22;24282;48.400;10.808;2023-04-15T12:19:41;10.80;50.80
38514;DHT22;24282;48.400;10.808;2023-04-15T12:22:12;10.80;50.50
38514;DHT22;24282;48.400;10.808;2023-04-15T12:24:40;10.80;51.20
38514;DHT22;24282;48.400;10.808;2023-04-15T12:27:10;10.80;52.00
38514;DHT22;24282;48.400;10.808;2023-04-15T12:29:37;10.70;53.00
38514;DHT22;24282;48.400;10.808;2023-04-15T12:32:07;10.60;53.80
38514;DHT22;24282;48.400;10.808;2023-04-15T12:34:35;10.60;54.80
38514;DHT22;24282;48.400;10.808;2023-04-15T12:37:03;10.60;54.70
38514;DHT22;24282;48.400;10.808;2023-04-15T12:39:31;10.50;54.90
38514;DHT22;24282;48.400;10.808;2023-04-15T12:41:57;10.50;54.90
38514;DHT22;24282;48.400;10.808;2023-04-15T12:44:25;10.50;55.00
38514;DHT22;24282;48.400;10.808;2023-04-15T12:46:51;10.40;55.50
38514;DHT22;24282;48.400;10.808;2023-04-15T12:49:21;10.40;55.10
38514;DHT22;24282;48.400;10.808;2023-04-15T12:51:52;10.40;54.90
38514;DHT22;24282;48.400;10.808;2023-04-15T12:54:19;10.40;55.50
38514;DHT22;24282;48.400;10.808;2023-04-15T12:56:46;10.50;54.60
38514;DHT22;24282;48.400;10.808;2023-04-15T12:59:12;10.50;55.40
38514;DHT22;24282;48.400;10.808;2023-04-15T13:01:38;10.60;52.70
38514;DHT22;24282;48.400;10.808;2023-04-15T13:04:05;10.50;53.80
38514;DHT22;24282;48.400;10.808;2023-04-15T13:06:31;10.50;52.50
38514;DHT22;24282;48.400;10.808;2023-04-15T13:09:00;10.50;52.80
38514;DHT22;24282;48.400;10.808;2023-04-15T13:11:27;10.60;52.00
38514;DHT22;24282;48.400;10.808;2023-04-15T13:13:55;10.50;51.60
38514;DHT22;24282;48.400;10.808;2023-04-15T13:16:22;10.50;51.40
38514;DHT22;24282;48.400;10.808;2023-04-15T13:18:48;10.50;51.70
38514;DHT22;24282;48.400;10.808;2023-04-15T13:21:14;10.50;51.60
38514;DHT22;24282;48.400;10.808;2023-04-15T13:23:42;10.50;49.90
38514;DHT22;24282;48.400;10.808;2023-04-15T13:26:08;10.60;49.40
38514;DHT22;24282;48.400;10.808;2023-04-15T13:28:34;10.50;50.40
38514;DHT22;24282;48.400;10.808;2023-04-15T13:31:00;10.50;51.10
38514;DHT22;24282;48.400;10.808;2023-04-15T13:33:26;10.50;51.20
38514;DHT22;24282;48.400;10.808;2023-04-15T13:35:52;10.40;51.70
38514;DHT22;24282;48.400;10.808;2023-04-15T13:38:18;10.40;52.70
38514;DHT22;24282;48.400;10.808;2023-04-15T13:40:43;10.40;53.90
38514;DHT22;24282;48.400;10.808;2023-04-15T13:43:09;10.40;55.20
38514;DHT22;24282;48.400;10.808;2023-04-15T13:45:36;10.40;55.10
38514;DHT22;24282;48.400;10.808;2023-04-15T13:48:02;10.40;55.40
38514;DHT22;24282;48.400;10.808;2023-04-15T13:50:28;10.40;55.70
38514;DHT22;24282;48.400;10.808;2023-04-15T13:52:53;10.30;56.60
38514;DHT22;24282;48.400;10.808;2023-04-15T13:55:19;10.40;55.70
38514;DHT22;24282;48.400;10.808;2023-04-15T13:57:45;10.50;53.10
38514;DHT22;24282;48.400;10.808;2023-04-15T14:00:12;10.50;54.90
38514;DHT22;24282;48.400;10.808;2023-04-15T14:02:39;10.40;57.80
38514;DHT22;24282;48.400;10.808;2023-04-15T14:05:05;10.30;58.40
38514;DHT22;24282;48.400;10.808;2023-04-15T14:07:30;10.30;56.80
38514;DHT22;24282;48.400;10.808;2023-04-15T14:09:56;10.20;58.50
38514;DHT22;24282;48.400;10.808;2023-04-15T14:12:25;10.10;58.90
38514;DHT22;24282;48.400;10.808;2023-04-15T14:14:51;10.10;57.00
38514;DHT22;24282;48.400;10.808;2023-04-15T14:17:17;10.10;58.00
38514;DHT22;24282;48.400;10.808;2023-04-15T14:19:42;10.00;56.90
38514;DHT22;24282;48.400;10.808;2023-04-15T14:22:08;10.00;56.60
38514;DHT22;24282;48.400;10.808;2023-04-15T14:24:34;9.90;58.20
38514;DHT22;24282;48.400;10.808;2023-04-15T14:26:59;10.00;56.00
38514;DHT22;24282;48.400;10.808;2023-04-15T14:29:27;10.10;55.70
38514;DHT22;24282;48.400;10.808;2023-04-15T14:31:52;10.10;55.80
38514;DHT22;24282;48.400;10.808;2023-04-15T14:34:18;10.10;57.30
38514;DHT22;24282;48.400;10.808;2023-04-15T14:36:46;10.10;60.40
38514;DHT22;24282;48.400;10.808;2023-04-15T14:39:13;10.10;62.20
38514;DHT22;24282;48.400;10.808;2023-04-15T14:41:38;10.00;62.30
38514;DHT22;24282;48.400;10.808;2023-04-15T14:44:04;10.00;63.60
38514;DHT22;24282;48.400;10.808;2023-04-15T14:46:30;10.00;63.70
38514;DHT22;24282;48.400;10.808;2023-04-15T14:48:56;9.90;63.60
38514;DHT22;24282;48.400;10.808;2023-04-15T14:51:22;9.90;63.60
38514;DHT22;24282;48.400;10.808;2023-04-15T14:53:47;9.70;63.10
38514;DHT22;24282;48.400;10.808;2023-04-15T14:56:13;9.60;64.40
38514;DHT22;24282;48.400;10.808;2023-04-15T14:58:39;9.40;64.70
38514;DHT22;24282;48.400;10.808;2023-04-15T15:01:05;9.40;63.90
38514;DHT22;24282;48.400;10.808;2023-04-15T15:03:30;9.40;65.50
38514;DHT22;24282;48.400;10.808;2023-04-15T15:05:56;9.50;65.30
38514;DHT22;24282;48.400;10.808;2023-04-15T15:08:22;9.50;65.00
38514;DHT22;24282;48.400;10.808;2023-04-15T15:10:48;9.60;61.70
38514;DHT22;24282;48.400;10.808;2023-04-15T15:13:14;9.60;62.30
38514;DHT22;24282;48.400;10.808;2023-04-15T15:15:40;9.60;62.20
38514;DHT22;24282;48.400;10.808;2023-04-15T15:18:06;9.60;62.20
38514;DHT22;24282;48.400;10.808;2023-04-15T15:20:32;9.60;61.90
38514;DHT22;24282;48.400;10.808;2023-04-15T15:22:59;9.50;62.80
38514;DHT22;24282;48.400;10.808;2023-04-15T15:25:25;9.40;63.40
38514;DHT22;24282;48.400;10.808;2023-04-15T15:27:51;9.40;64.80
38514;DHT22;24282;48.400;10.808;2023-04-15T15:30:17;9.40;65.80
38514;DHT22;24282;48.400;10.808;2023-04-15T15:32:43;9.30;65.30
38514;DHT22;24282;48.400;10.808;2023-04-15T15:35:09;9.20;65.80
38514;DHT22;24282;48.400;10.808;2023-04-15T15:37:35;9.20;64.70
38514;DHT22;24282;48.400;10.808;2023-04-15T15:40:05;9.20;64.90